Time,TemperatureF,DewpointF,PressureIn,WindDirection,WindDirectionDegrees,WindSpeedMPH,WindSpeedGustMPH,Humidity,HourlyPrecipIn,Conditions,Clouds,dailyrainin,SolarRadiationWatts/m^2,SoftwareType,DateUTC
2013-05-21 02:00:00,31.0,-99.9,44.89,SSE,156,1.0,4.0,-999,-99.99,,,-99.99,0.000000,,2013-05-21 09:00:00,
2013-05-21 02:53:00,31.0,-99.9,44.89,SSE,156,1.0,4.0,-999,-99.99,,,-99.99,0.000000,,2013-05-21 09:53:00,
2013-05-21 03:00:00,30.0,-99.9,44.89,SSE,156,0.0,2.0,-999,-99.99,,,0.00,0.000000,,2013-05-21 10:00:00,
2013-05-21 04:00:00,29.0,-99.9,44.89,SSE,156,0.0,2.0,-999,-99.99,,,0.00,0.000000,,2013-05-21 11:00:00,
2013-05-21 05:00:00,30.0,-99.9,44.89,South,187,0.0,2.0,-999,-99.99,,,0.00,0.000000,,2013-05-21 12:00:00,
2013-05-21 06:00:00,30.0,-99.9,44.89,WNW,300,1.0,2.0,-999,-99.99,,,0.00,6.400000,,2013-05-21 13:00:00,
2013-05-21 09:00:00,52.0,-99.9,44.89,ESE,122,1.0,6.0,-999,-99.99,,,0.00,603.200012,,2013-05-21 16:00:00,
2013-05-21 10:00:00,52.0,-99.9,44.89,NNW,331,2.0,9.0,-999,-99.99,,,0.00,776.900024,,2013-05-21 17:00:00,
2013-05-21 10:53:00,52.0,-99.9,44.89,NNW,331,2.0,9.0,-999,-99.99,,,0.00,776.900024,,2013-05-21 17:53:00,
2013-05-21 11:00:00,55.0,-99.9,44.89,NNW,344,2.0,7.0,-999,-99.99,,,0.00,963.099976,,2013-05-21 18:00:00,
2013-05-21 11:52:00,55.0,-99.9,44.89,NNW,344,2.0,7.0,-999,-99.99,,,0.00,963.099976,,2013-05-21 18:52:00,
2013-05-21 12:00:00,56.0,-99.9,-100.00,North,-999,-999.0,-999.0,-999,-99.99,,,0.00,,,2013-05-21 19:00:00,
2013-05-21 12:53:00,56.0,-99.9,-100.00,North,-999,-999.0,-999.0,-999,-99.99,,,0.00,,,2013-05-21 19:53:00,
2013-05-21 13:00:00,57.0,-99.9,44.89,North,-999,-999.0,-999.0,-999,-99.99,,,-99.99,,,2013-05-21 20:00:00,
2013-05-21 13:52:00,57.0,-99.9,44.89,North,-999,-999.0,-999.0,-999,-99.99,,,-99.99,,,2013-05-21 20:52:00,
2013-05-21 14:00:00,55.0,-99.9,44.89,North,349,3.0,8.0,-999,-99.99,,,-99.99,917.599976,,2013-05-21 21:00:00,
2013-05-21 14:54:00,55.0,-99.9,44.89,North,349,3.0,8.0,-999,-99.99,,,-99.99,917.599976,,2013-05-21 21:54:00,
2013-05-21 15:00:00,57.0,-99.9,44.89,NNW,339,2.0,8.0,-999,-99.99,,,0.00,704.200012,,2013-05-21 22:00:00,
2013-05-21 15:53:00,57.0,-99.9,44.89,NNW,339,2.0,8.0,-999,-99.99,,,0.00,704.200012,,2013-05-21 22:53:00,
2013-05-21 16:00:00,56.0,-99.9,44.89,NW,324,3.0,10.0,-999,-99.99,,,-99.99,731.099976,,2013-05-21 23:00:00,
2013-05-21 16:52:00,56.0,-99.9,44.89,NW,324,3.0,10.0,-999,-99.99,,,-99.99,731.099976,,2013-05-21 23:52:00,
2013-05-21 17:00:00,56.0,-99.9,44.89,NW,305,2.0,8.0,-999,-99.99,,,0.00,464.299988,,2013-05-22 00:00:00,
2013-05-21 17:52:00,56.0,-99.9,44.89,NW,305,2.0,8.0,-999,-99.99,,,0.00,464.299988,,2013-05-22 00:52:00,
2013-05-21 18:00:00,52.0,-99.9,44.89,NW,312,2.0,11.0,-999,-99.99,,,-99.99,326.299988,,2013-05-22 01:00:00,
2013-05-21 18:52:00,52.0,-99.9,44.89,NW,312,2.0,11.0,-999,-99.99,,,-99.99,326.299988,,2013-05-22 01:52:00,
2013-05-21 19:00:00,50.0,-99.9,44.89,WNW,285,2.0,10.0,-999,-99.99,,,0.00,50.099998,,2013-05-22 02:00:00,
2013-05-21 19:52:00,50.0,-99.9,44.89,WNW,285,2.0,10.0,-999,-99.99,,,0.00,50.099998,,2013-05-22 02:52:00,
2013-05-21 20:00:00,48.0,-99.9,44.89,North,-999,-999.0,-999.0,-999,-99.99,,,0.00,,,2013-05-22 03:00:00,
2013-05-21 20:53:00,48.0,-99.9,44.89,North,-999,-999.0,-999.0,-999,-99.99,,,0.00,,,2013-05-22 03:53:00,
2013-05-21 21:00:00,47.0,-99.9,44.89,WNW,292,4.0,13.0,-999,-99.99,,,0.00,0.000000,,2013-05-22 04:00:00,
2013-05-21 21:53:00,47.0,-99.9,44.89,WNW,292,4.0,13.0,-999,-99.99,,,0.00,0.000000,,2013-05-22 04:53:00,
2013-05-21 22:00:00,47.0,-99.9,-100.00,WNW,287,4.0,9.0,-999,-99.99,,,0.00,0.000000,,2013-05-22 05:00:00,
2013-05-21 22:52:00,47.0,-99.9,-100.00,WNW,287,4.0,9.0,-999,-99.99,,,0.00,0.000000,,2013-05-22 05:52:00,
2013-05-21 23:00:00,46.0,-99.9,-100.00,North,-999,-999.0,-999.0,-999,-99.99,,,-99.99,,,2013-05-22 06:00:00,
2013-05-21 23:52:00,46.0,-99.9,-100.00,North,-999,-999.0,-999.0,-999,-99.99,,,-99.99,,,2013-05-22 06:52:00,